createdAt,value
2023-04-23T00:01:08.962Z,24.55
2023-04-23T00:03:43.203Z,24.67
2023-04-23T00:06:17.659Z,27.45
2023-04-23T00:08:52.483Z,25.05
2023-04-23T00:11:24.611Z,23.40
2023-04-23T00:13:56.860Z,23.38
2023-04-23T00:16:29.261Z,25.38
2023-04-23T00:19:01.330Z,26.73
2023-04-23T00:21:33.796Z,24.35
2023-04-23T00:24:06.117Z,24.20
2023-04-23T00:26:38.015Z,25.98
2023-04-23T00:29:09.972Z,24.63
2023-04-23T00:35:47.005Z,24.45
2023-04-23T00:38:21.020Z,23.58
2023-04-23T00:40:53.118Z,23.02
2023-04-23T00:43:25.090Z,26.42
2023-04-23T00:45:57.127Z,27.73
2023-04-23T00:48:29.465Z,24.35
2023-04-23T00:51:05.792Z,25.52
2023-04-23T00:53:37.757Z,24.77
2023-04-23T00:56:10.506Z,28.08
2023-04-23T00:58:42.749Z,25.77
2023-04-23T01:01:15.274Z,26.15
2023-04-23T01:03:52.922Z,26.33
2023-04-23T01:06:28.466Z,30.45
2023-04-23T01:09:00.887Z,25.30
2023-04-23T01:11:33.203Z,25.05
2023-04-23T01:14:05.305Z,26.90
2023-04-23T01:16:41.293Z,24.88
2023-04-23T01:19:13.490Z,26.98
2023-04-23T01:21:45.840Z,25.83
2023-04-23T01:24:17.901Z,28.30
2023-04-23T01:26:50.887Z,28.25
2023-04-23T01:29:23.021Z,29.00
2023-04-23T01:31:58.009Z,29.88
2023-04-23T01:34:31.870Z,29.00
2023-04-23T01:37:04.617Z,25.73
2023-04-23T01:39:37.173Z,30.65
2023-04-23T01:42:09.344Z,29.05
2023-04-23T01:44:41.667Z,26.88
2023-04-23T01:47:13.924Z,26.65
2023-04-23T01:49:46.024Z,31.15
2023-04-23T01:52:18.759Z,27.27
2023-04-23T01:54:50.812Z,24.67
2023-04-23T01:57:26.608Z,28.20
2023-04-23T02:00:08.357Z,28.27
2023-04-23T02:02:47.136Z,28.35
2023-04-23T02:05:19.929Z,28.88
2023-04-23T02:07:52.461Z,28.67
2023-04-23T02:10:25.810Z,28.17
2023-04-23T02:12:59.150Z,26.70
2023-04-23T02:15:31.803Z,26.58
2023-04-23T02:18:07.049Z,26.05
2023-04-23T02:20:40.997Z,28.60
2023-04-23T02:23:13.176Z,27.52
2023-04-23T02:25:46.093Z,24.95
2023-04-23T02:28:18.053Z,27.30
2023-04-23T02:30:50.040Z,29.38
2023-04-23T02:33:21.976Z,28.15
2023-04-23T02:35:54.451Z,25.88
2023-04-23T02:38:26.424Z,25.40
2023-04-23T02:40:58.370Z,26.85
2023-04-23T02:43:30.382Z,26.55
2023-04-23T02:46:08.415Z,24.58
2023-04-23T02:48:42.117Z,25.83
2023-04-23T02:51:14.386Z,22.10
2023-04-23T02:53:46.374Z,25.02
2023-04-23T02:56:18.346Z,23.17
2023-04-23T02:58:50.545Z,23.42
2023-04-23T03:01:23.015Z,24.60
2023-04-23T03:03:55.626Z,22.38
2023-04-23T03:06:28.114Z,22.48
2023-04-23T03:09:00.304Z,23.63
2023-04-23T03:11:32.463Z,22.52
2023-04-23T03:14:04.552Z,23.50
2023-04-23T03:16:36.642Z,24.13
2023-04-23T03:19:08.692Z,23.80
2023-04-23T03:21:40.894Z,25.58
2023-04-23T03:24:15.140Z,23.10
2023-04-23T03:26:47.030Z,22.40
2023-04-23T03:29:18.981Z,20.10
2023-04-23T03:31:51.050Z,24.60
2023-04-23T03:34:23.391Z,20.63
2023-04-23T03:36:55.395Z,22.23
2023-04-23T03:39:27.586Z,24.70
2023-04-23T03:42:00.944Z,20.95
2023-04-23T03:44:35.781Z,22.65
2023-04-23T03:47:07.764Z,23.42
2023-04-23T03:49:41.154Z,24.67
2023-04-23T03:52:13.684Z,21.88
2023-04-23T03:54:46.867Z,21.95
2023-04-23T03:57:22.524Z,21.25
2023-04-23T04:00:13.044Z,23.92
2023-04-23T04:02:49.015Z,24.17
2023-04-23T04:05:22.050Z,20.30
2023-04-23T04:07:54.403Z,25.08
2023-04-23T04:10:26.411Z,22.17
2023-04-23T04:12:58.440Z,23.23
2023-04-23T04:15:30.685Z,23.13
2023-04-23T04:18:02.709Z,24.20
2023-04-23T04:20:34.664Z,25.05
2023-04-23T04:23:06.591Z,23.60
2023-04-23T04:25:40.223Z,24.67
2023-04-23T04:28:12.252Z,23.40
2023-04-23T04:30:44.231Z,22.17
2023-04-23T04:33:16.800Z,22.08
2023-04-23T04:35:49.702Z,22.40
2023-04-23T04:38:22.444Z,23.02
2023-04-23T04:41:01.777Z,20.65
2023-04-23T04:43:34.568Z,20.52
2023-04-23T04:46:07.573Z,23.95
2023-04-23T04:48:39.808Z,23.98
2023-04-23T04:51:11.802Z,22.55
2023-04-23T04:53:43.854Z,24.90
2023-04-23T04:56:15.914Z,21.92
2023-04-23T04:58:47.915Z,24.05
2023-04-23T05:01:21.430Z,21.92
2023-04-23T05:03:53.811Z,23.30
2023-04-23T05:06:26.055Z,24.60
2023-04-23T05:08:58.178Z,25.45
2023-04-23T05:11:30.607Z,22.80
2023-04-23T05:14:04.323Z,28.38
2023-04-23T05:16:36.275Z,23.80
2023-04-23T05:19:08.529Z,22.55
2023-04-23T05:21:40.698Z,22.52
2023-04-23T05:24:12.626Z,20.83
2023-04-23T05:26:44.562Z,21.33
2023-04-23T05:29:19.516Z,21.75
2023-04-23T05:31:51.985Z,21.50
2023-04-23T05:34:23.978Z,24.20
2023-04-23T05:36:55.940Z,23.17
2023-04-23T05:39:28.056Z,21.70
2023-04-23T05:42:00.150Z,23.35
2023-04-23T05:44:32.255Z,20.95
2023-04-23T05:47:04.775Z,25.77
2023-04-23T05:49:36.776Z,51.88
2023-04-23T05:52:08.990Z,22.40
2023-04-23T05:54:42.339Z,24.27
2023-04-23T05:57:14.596Z,21.38
2023-04-23T05:59:46.645Z,20.20
2023-04-23T06:02:18.746Z,21.60
2023-04-23T06:04:51.060Z,19.55
2023-04-23T06:07:23.269Z,21.70
2023-04-23T06:09:56.537Z,21.48
2023-04-23T06:12:28.474Z,18.05
2023-04-23T06:15:00.545Z,20.60
2023-04-23T06:17:32.661Z,21.67
2023-04-23T06:20:05.230Z,18.38
2023-04-23T06:22:37.250Z,18.58
2023-04-23T06:25:09.700Z,19.13
2023-04-23T06:27:41.768Z,19.50
2023-04-23T06:30:21.251Z,20.83
2023-04-23T06:32:53.356Z,22.55
2023-04-23T06:35:25.472Z,20.17
2023-04-23T06:37:57.439Z,19.02
2023-04-23T06:40:29.387Z,17.70
2023-04-23T06:43:04.487Z,22.77
2023-04-23T06:45:45.192Z,18.73
2023-04-23T06:48:18.640Z,19.50
2023-04-23T06:50:51.465Z,20.13
2023-04-23T06:53:23.486Z,20.05
2023-04-23T06:55:55.456Z,21.17
2023-04-23T06:58:31.415Z,20.08
2023-04-23T07:01:07.586Z,21.17
2023-04-23T07:03:45.208Z,20.33
2023-04-23T07:06:17.307Z,21.95
2023-04-23T07:08:49.327Z,20.27
2023-04-23T07:11:21.281Z,20.08
2023-04-23T07:13:53.340Z,20.90
2023-04-23T07:16:25.985Z,20.92
2023-04-23T07:18:57.932Z,24.02
2023-04-23T07:21:30.015Z,21.05
2023-04-23T07:24:08.173Z,21.05
2023-04-23T07:26:40.236Z,22.98
2023-04-23T07:29:14.182Z,20.90
2023-04-23T07:31:46.538Z,21.30
2023-04-23T07:34:18.555Z,20.92
2023-04-23T07:36:50.665Z,25.05
2023-04-23T07:39:22.708Z,21.52
2023-04-23T07:41:54.855Z,22.23
2023-04-23T07:44:26.833Z,21.23
2023-04-23T07:46:58.792Z,20.70
2023-04-23T07:49:31.215Z,22.05
2023-04-23T07:52:03.336Z,22.55
2023-04-23T07:54:35.520Z,19.77
2023-04-23T07:57:07.577Z,20.00
2023-04-23T07:59:39.842Z,20.58
2023-04-23T08:02:12.056Z,20.30
2023-04-23T08:04:44.184Z,21.95
2023-04-23T08:07:16.280Z,18.80
2023-04-23T08:09:48.864Z,19.90
2023-04-23T08:12:21.246Z,19.77
2023-04-23T08:14:53.191Z,19.58
2023-04-23T08:17:29.786Z,17.38
2023-04-23T08:20:01.878Z,19.00
2023-04-23T08:22:33.954Z,17.65
2023-04-23T08:25:06.522Z,18.60
2023-04-23T08:27:38.731Z,18.20
2023-04-23T08:30:10.891Z,18.83
2023-04-23T08:32:42.908Z,18.98
2023-04-23T08:35:14.884Z,17.05
2023-04-23T08:37:47.186Z,19.73
2023-04-23T08:40:19.198Z,20.45
2023-04-23T08:42:58.381Z,18.67
2023-04-23T08:45:31.423Z,19.05
2023-04-23T08:48:04.788Z,19.55
2023-04-23T08:50:38.657Z,19.58
2023-04-23T08:53:11.244Z,20.73
2023-04-23T08:55:43.702Z,18.45
2023-04-23T08:58:16.093Z,20.20
2023-04-23T09:00:49.342Z,19.38
2023-04-23T09:03:22.590Z,20.10
2023-04-23T09:05:54.920Z,20.60
2023-04-23T09:08:27.140Z,18.73
2023-04-23T09:11:01.858Z,19.70
2023-04-23T09:13:35.120Z,21.90
2023-04-23T09:16:07.158Z,20.92
2023-04-23T09:18:39.661Z,20.63
2023-04-23T09:21:12.305Z,21.35
2023-04-23T09:23:44.359Z,21.30
2023-04-23T09:26:22.211Z,20.48
2023-04-23T09:28:54.143Z,21.23
2023-04-23T09:31:26.186Z,19.58
2023-04-23T09:33:58.596Z,25.90
2023-04-23T09:36:32.435Z,16.67
2023-04-23T09:39:12.722Z,17.05
2023-04-23T09:41:48.160Z,16.20
2023-04-23T09:44:23.174Z,15.80
2023-04-23T09:47:06.233Z,15.23
2023-04-23T09:49:51.832Z,15.60
2023-04-23T09:52:23.869Z,15.13
2023-04-23T09:55:01.952Z,14.07
2023-04-23T09:57:44.925Z,13.38
2023-04-23T10:00:19.911Z,13.55
2023-04-23T10:02:52.849Z,14.00
2023-04-23T10:05:31.291Z,13.25
2023-04-23T10:08:10.411Z,13.80
2023-04-23T10:10:59.534Z,13.07
2023-04-23T10:13:38.045Z,14.43
2023-04-23T10:16:21.775Z,14.70
2023-04-23T10:19:00.169Z,13.93
2023-04-23T10:21:46.332Z,16.08
2023-04-23T10:24:25.633Z,13.98
2023-04-23T10:27:02.103Z,16.65
2023-04-23T10:29:36.808Z,14.18
2023-04-23T10:32:09.219Z,14.02
2023-04-23T10:34:42.223Z,14.20
2023-04-23T10:37:19.456Z,14.82
2023-04-23T10:39:56.010Z,13.48
2023-04-23T10:42:28.294Z,13.15
2023-04-23T10:45:07.217Z,16.92
2023-04-23T10:47:47.822Z,15.45
2023-04-23T10:50:23.197Z,14.13
2023-04-23T10:53:00.234Z,14.60
2023-04-23T10:55:33.222Z,12.82
2023-04-23T10:58:07.436Z,14.52
2023-04-23T11:00:43.271Z,12.98
2023-04-23T11:03:42.957Z,15.80
2023-04-23T11:08:54.073Z,13.93
2023-04-23T11:11:43.121Z,13.30
2023-04-23T11:14:15.123Z,13.23
2023-04-23T11:16:49.149Z,11.57
2023-04-23T11:19:22.921Z,13.60
2023-04-23T11:22:01.177Z,17.65
2023-04-23T11:24:36.651Z,12.23
2023-04-23T11:27:27.056Z,10.45
2023-04-23T11:30:00.086Z,12.45
2023-04-23T11:32:33.323Z,10.60
2023-04-23T11:35:07.733Z,13.68
2023-04-23T11:37:44.277Z,10.40
2023-04-23T11:40:21.329Z,9.98
2023-04-23T11:42:57.781Z,7.95
2023-04-23T11:45:29.989Z,10.15
2023-04-23T11:48:02.056Z,8.70
2023-04-23T11:50:35.523Z,8.73
2023-04-23T11:53:11.620Z,8.13
2023-04-23T11:55:47.758Z,7.30
2023-04-23T11:58:19.862Z,7.50
2023-04-23T12:01:01.313Z,8.50
2023-04-23T12:03:33.491Z,6.60
2023-04-23T12:06:08.651Z,7.63
2023-04-23T12:08:42.980Z,8.55
2023-04-23T12:11:15.330Z,7.32
2023-04-23T12:13:50.592Z,8.13
2023-04-23T12:16:41.388Z,6.18
2023-04-23T12:19:21.842Z,5.47
2023-04-23T12:21:56.314Z,5.63
2023-04-23T12:24:48.968Z,4.95
2023-04-23T12:27:22.840Z,4.53
2023-04-23T12:30:01.973Z,6.00
2023-04-23T12:32:35.495Z,5.93
2023-04-23T12:35:10.019Z,4.63
2023-04-23T12:37:52.072Z,6.38
2023-04-23T12:40:24.387Z,4.70
2023-04-23T12:42:56.363Z,4.38
2023-04-23T12:45:40.086Z,6.07
2023-04-23T12:48:13.253Z,6.03
2023-04-23T12:50:47.137Z,6.15
2023-04-23T12:53:19.659Z,4.43
2023-04-23T12:55:54.638Z,6.47
2023-04-23T12:58:28.093Z,6.22
2023-04-23T13:01:10.180Z,4.10
2023-04-23T13:03:42.382Z,4.03
2023-04-23T13:06:19.997Z,5.85
2023-04-23T13:08:52.495Z,5.78
2023-04-23T13:11:24.499Z,5.45
2023-04-23T13:13:56.476Z,5.78
2023-04-23T13:16:29.456Z,7.05
2023-04-23T13:19:05.317Z,4.70
2023-04-23T13:21:39.156Z,4.53
2023-04-23T13:24:15.139Z,5.22
2023-04-23T13:26:47.254Z,5.72
2023-04-23T13:29:19.304Z,6.40
2023-04-23T13:31:51.451Z,5.97
2023-04-23T13:34:23.597Z,6.00
2023-04-23T13:36:55.623Z,6.65
2023-04-23T13:39:27.717Z,7.70
2023-04-23T13:44:34.644Z,4.40
2023-04-23T13:47:06.699Z,4.75
2023-04-23T13:49:38.701Z,5.70
2023-04-23T13:52:10.825Z,11.90
2023-04-23T13:54:43.005Z,4.63
2023-04-23T13:57:15.402Z,4.30
2023-04-23T13:59:47.473Z,8.95
2023-04-23T14:02:19.792Z,5.50
2023-04-23T14:04:52.023Z,5.47
2023-04-23T14:07:24.329Z,5.45
2023-04-23T14:09:56.408Z,6.97
2023-04-23T14:12:31.315Z,10.00
2023-04-23T14:15:03.424Z,11.85
2023-04-23T14:17:37.328Z,8.35
2023-04-23T14:20:10.481Z,6.28
2023-04-23T14:22:43.356Z,6.68
2023-04-23T14:25:23.696Z,6.20
2023-04-23T14:27:57.698Z,6.15
2023-04-23T14:30:32.263Z,5.22
2023-04-23T14:33:04.273Z,4.22
2023-04-23T14:38:13.800Z,7.07
2023-04-23T14:40:45.911Z,17.73
2023-04-23T14:43:17.945Z,8.10
2023-04-23T14:45:51.084Z,9.25
2023-04-23T14:48:23.155Z,6.22
2023-04-23T14:50:55.570Z,4.45
2023-04-23T14:53:33.487Z,4.95
2023-04-23T14:56:06.007Z,5.60
2023-04-23T14:58:38.384Z,5.97
2023-04-23T15:01:10.297Z,6.72
2023-04-23T15:03:45.402Z,7.15
2023-04-23T15:06:17.715Z,5.70
2023-04-23T15:08:49.980Z,6.65
2023-04-23T15:11:22.102Z,6.43
2023-04-23T15:14:03.898Z,6.80
2023-04-23T15:19:12.231Z,6.60
2023-04-23T15:21:44.283Z,4.55
2023-04-23T15:24:17.110Z,5.53
2023-04-23T15:26:49.746Z,7.05
2023-04-23T15:29:24.442Z,4.82
2023-04-23T15:31:58.487Z,4.20
2023-04-23T15:34:30.969Z,5.57
2023-04-23T15:37:08.604Z,3.63
2023-04-23T15:39:40.782Z,5.57
2023-04-23T15:42:14.801Z,5.07
2023-04-23T15:44:50.685Z,9.02
2023-04-23T15:47:23.462Z,6.88
2023-04-23T15:49:55.396Z,6.00
2023-04-23T15:52:27.399Z,4.80
2023-04-23T15:54:59.756Z,4.00
2023-04-23T15:57:32.127Z,4.53
2023-04-23T16:00:06.142Z,5.05
2023-04-23T16:02:43.788Z,3.58
2023-04-23T16:05:16.451Z,4.47
2023-04-23T16:07:48.525Z,5.28
2023-04-23T16:10:20.542Z,7.45
2023-04-23T16:12:54.407Z,4.82
2023-04-23T16:15:26.783Z,4.82
2023-04-23T16:18:00.095Z,4.90
2023-04-23T16:20:33.357Z,3.55
2023-04-23T16:23:06.860Z,6.97
2023-04-23T16:25:39.249Z,6.68
2023-04-23T16:28:13.760Z,6.82
2023-04-23T16:30:45.859Z,4.78
2023-04-23T16:33:17.881Z,7.00
2023-04-23T16:35:49.897Z,4.93
2023-04-23T16:38:21.890Z,5.07
2023-04-23T16:40:53.878Z,4.00
2023-04-23T16:43:25.933Z,6.47
2023-04-23T16:45:58.400Z,6.10
2023-04-23T16:48:30.528Z,7.35
2023-04-23T16:51:02.515Z,6.22
2023-04-23T16:53:34.572Z,5.65
2023-04-23T16:56:06.994Z,4.00
2023-04-23T16:58:38.918Z,5.43
2023-04-23T17:01:11.030Z,5.40
2023-04-23T17:03:43.447Z,5.07
2023-04-23T17:06:32.041Z,5.43
2023-04-23T17:09:08.793Z,6.13
2023-04-23T17:11:40.838Z,5.00
2023-04-23T17:14:13.127Z,5.53
2023-04-23T17:16:45.138Z,3.88
2023-04-23T17:19:18.499Z,6.45
2023-04-23T17:21:50.440Z,4.00
2023-04-23T17:24:22.501Z,6.05
2023-04-23T17:26:54.447Z,4.75
2023-04-23T17:29:26.459Z,4.25
2023-04-23T17:31:58.466Z,6.20
2023-04-23T17:34:30.503Z,4.70
2023-04-23T17:37:02.582Z,5.22
2023-04-23T17:39:34.541Z,5.40
2023-04-23T17:42:07.391Z,4.60
2023-04-23T17:44:40.864Z,5.50
2023-04-23T17:47:14.149Z,7.50
2023-04-23T17:49:46.300Z,4.55
2023-04-23T17:52:18.271Z,4.05
2023-04-23T17:54:50.275Z,5.40
2023-04-23T17:57:22.266Z,5.95
2023-04-23T17:59:54.307Z,3.85
2023-04-23T18:02:26.355Z,5.53
2023-04-23T18:04:59.402Z,6.75
2023-04-23T18:07:31.616Z,7.78
2023-04-23T18:10:04.714Z,8.15
2023-04-23T18:12:36.738Z,20.67
2023-04-23T18:15:12.312Z,15.02
2023-04-23T18:17:45.348Z,10.90
2023-04-23T18:20:17.624Z,9.68
2023-04-23T18:22:49.832Z,10.70
2023-04-23T18:25:22.313Z,10.82
2023-04-23T18:27:54.396Z,6.82
2023-04-23T18:30:26.439Z,7.38
2023-04-23T18:33:46.154Z,7.35
2023-04-23T18:36:36.517Z,6.53
2023-04-23T18:39:08.956Z,7.07
2023-04-23T18:41:41.178Z,6.60
2023-04-23T18:44:14.257Z,6.47
2023-04-23T18:46:47.006Z,7.85
2023-04-23T18:49:45.814Z,9.07
2023-04-23T18:52:17.973Z,6.22
2023-04-23T18:54:50.013Z,6.90
2023-04-23T18:57:21.928Z,6.60
2023-04-23T18:59:53.886Z,7.20
2023-04-23T19:02:35.326Z,6.93
2023-04-23T19:05:08.433Z,6.70
2023-04-23T19:07:42.626Z,6.80
2023-04-23T19:10:16.301Z,8.43
2023-04-23T19:12:48.379Z,6.95
2023-04-23T19:15:20.457Z,7.65
2023-04-23T19:17:52.617Z,6.40
2023-04-23T19:20:24.758Z,7.18
2023-04-23T19:22:56.731Z,7.25
2023-04-23T19:25:28.801Z,7.00
2023-04-23T19:28:01.034Z,8.45
2023-04-23T19:30:33.168Z,8.00
2023-04-23T19:33:05.251Z,7.55
2023-04-23T19:35:39.896Z,8.10
2023-04-23T19:38:12.334Z,8.32
2023-04-23T19:40:44.450Z,9.10
2023-04-23T19:43:16.471Z,7.93
2023-04-23T19:45:48.402Z,9.55
2023-04-23T19:48:20.702Z,8.38
2023-04-23T19:50:52.748Z,10.23
2023-04-23T19:53:26.359Z,8.85
2023-04-23T19:55:58.385Z,8.02
2023-04-23T19:58:30.503Z,10.45
2023-04-23T20:01:02.744Z,8.68
2023-04-23T20:03:35.065Z,8.32
2023-04-23T20:06:07.230Z,8.45
2023-04-23T20:08:53.109Z,8.77
2023-04-23T20:11:25.346Z,8.60
2023-04-23T20:13:57.728Z,17.25
2023-04-23T20:16:30.030Z,18.23
2023-04-23T20:19:04.904Z,11.07
2023-04-23T20:21:38.810Z,11.70
2023-04-23T20:24:12.819Z,8.30
2023-04-23T20:26:44.947Z,9.10
2023-04-23T20:29:19.421Z,8.52
2023-04-23T20:31:51.370Z,8.20
2023-04-23T20:34:23.696Z,8.00
2023-04-23T20:36:58.941Z,8.05
2023-04-23T20:39:30.960Z,7.68
2023-04-23T20:42:05.423Z,11.07
2023-04-23T20:44:38.630Z,9.10
2023-04-23T20:47:10.567Z,7.80
2023-04-23T20:49:43.470Z,7.57
2023-04-23T20:52:15.839Z,7.55
2023-04-23T20:54:50.511Z,7.18
2023-04-23T20:57:22.463Z,8.50
2023-04-23T20:59:54.413Z,7.55
2023-04-23T21:02:26.522Z,7.20
2023-04-23T21:04:58.719Z,8.52
2023-04-23T21:07:31.166Z,8.38
2023-04-23T21:10:06.787Z,7.18
2023-04-23T21:12:39.748Z,6.35
2023-04-23T21:15:14.903Z,7.32
2023-04-23T21:17:46.960Z,7.10
2023-04-23T21:20:18.909Z,7.60
2023-04-23T21:22:50.933Z,6.15
2023-04-23T21:25:22.926Z,6.47
2023-04-23T21:27:56.218Z,5.50
2023-04-23T21:30:39.111Z,5.93
2023-04-23T21:33:11.075Z,4.95
2023-04-23T21:35:43.584Z,3.80
2023-04-23T21:38:16.093Z,5.15
2023-04-23T21:40:48.143Z,4.68
2023-04-23T21:43:20.136Z,5.05
2023-04-23T21:45:52.192Z,5.10
2023-04-23T21:48:24.158Z,4.90
2023-04-23T21:50:56.864Z,5.68
2023-04-23T21:53:28.844Z,5.07
2023-04-23T21:56:00.943Z,4.28
2023-04-23T21:58:34.794Z,3.90
2023-04-23T22:01:06.953Z,4.97
2023-04-23T22:03:42.470Z,3.60
2023-04-23T22:06:18.608Z,4.05
2023-04-23T22:08:51.160Z,4.55
2023-04-23T22:11:23.411Z,3.80
2023-04-23T22:13:55.359Z,4.18
2023-04-23T22:16:28.806Z,4.90
2023-04-23T22:19:01.599Z,4.65
2023-04-23T22:21:33.552Z,4.65
2023-04-23T22:24:07.205Z,4.57
2023-04-23T22:26:39.126Z,5.63
2023-04-23T22:29:11.129Z,4.93
2023-04-23T22:31:43.116Z,4.90
2023-04-23T22:34:15.142Z,5.60
2023-04-23T22:36:47.082Z,5.68
2023-04-23T22:39:19.078Z,6.00
2023-04-23T22:41:51.117Z,6.82
2023-04-23T22:44:23.091Z,7.22
2023-04-23T22:46:56.902Z,8.65
2023-04-23T22:49:29.647Z,7.20
2023-04-23T22:52:02.856Z,7.32
2023-04-23T22:54:34.959Z,6.72
2023-04-23T22:57:07.073Z,7.85
2023-04-23T22:59:40.069Z,6.88
2023-04-23T23:02:12.308Z,6.90
2023-04-23T23:04:44.296Z,7.35
2023-04-23T23:07:16.296Z,6.63
2023-04-23T23:09:48.227Z,6.70
2023-04-23T23:12:20.314Z,7.25
2023-04-23T23:14:52.311Z,5.05
2023-04-23T23:17:24.422Z,5.55
2023-04-23T23:19:56.423Z,6.13
2023-04-23T23:22:28.443Z,5.93
2023-04-23T23:25:00.596Z,6.57
2023-04-23T23:27:32.606Z,5.40
2023-04-23T23:30:06.132Z,5.75
2023-04-23T23:32:38.280Z,5.80
2023-04-23T23:35:10.355Z,5.75
2023-04-23T23:37:42.321Z,7.45
2023-04-23T23:40:14.330Z,5.47
2023-04-23T23:42:46.361Z,6.68
2023-04-23T23:45:18.327Z,5.45
2023-04-23T23:47:50.417Z,6.15
2023-04-23T23:50:22.424Z,5.22
2023-04-23T23:52:54.528Z,4.80
2023-04-23T23:55:26.597Z,5.10
2023-04-23T23:57:58.569Z,5.15
